EDDM 210220Z VRB02KT 9999 BKN030 11/09 Q1024 NOSIG EDDM 210150Z 35003KT 9999 BKN027 11/09 Q1024 NOSIG EDDM 210120Z VRB02KT 9999 BKN025 10/09 Q1023 NOSIG EDDM 210050Z 31001KT 9999 BKN025 10/09 Q1023 NOSIG EDDM 210020Z VRB02KT 9999 BKN042 10/09 Q1023 NOSIG EDDM 202350Z VRB01KT 9999 BKN042 10/09 Q1023 NOSIG EDDM 202320Z VRB01KT 9999 FEW032 BKN047 10/09 Q1023 NOSIG EDDM 202250Z 33001KT 9999 FEW032 BKN040 10/09 Q1023 NOSIG EDDM 202220Z 20001KT 9999 FEW032 BKN050 10/09 Q1023 NOSIG EDDM 202150Z 01001KT 9999 FEW032 BKN050 10/09 Q1023 NOSIG EDDM 202120Z 32001KT CAVOK 10/09 Q1023 NOSIG EDDM 202050Z VRB01KT CAVOK 10/09 Q1023 NOSIG EDDM 202020Z 00000KT CAVOK 10/09 Q1022 NOSIG EDDM 201950Z 03003KT 340V060 CAVOK 11/09 Q1022 NOSIG EDDM 201920Z VRB02KT CAVOK 11/09 Q1022 NOSIG EDDM 201850Z 04003KT 360V060 CAVOK 11/08 Q1022 NOSIG EDDM 201820Z 06003KT CAVOK 10/08 Q1022 NOSIG EDDM 201750Z 06003KT CAVOK 10/08 Q1021 NOSIG EDDM 201720Z VRB02KT CAVOK 12/08 Q1021 NOSIG EDDM 201650Z 04003KT CAVOK 13/08 Q1021 NOSIG EDDM 201620Z 03003KT 9999 FEW032 14/08 Q1020 NOSIG EDDM 201550Z 01003KT 310V070 9999 FEW032 14/08 Q1020 NOSIG EDDM 201520Z 01004KT 320V040 9999 FEW032 15/08 Q1020 NOSIG EDDM 201450Z 36006KT 310V060 9999 FEW032 15/07 Q1020 NOSIG EDDM 201420Z 01004KT 320V060 9999 FEW033 15/08 Q1020 NOSIG EDDM 201350Z 01004KT 320V070 9999 FEW033 16/08 Q1020 NOSIG EDDM 201320Z 03003KT 300V090 9999 FEW031 BKN048 15/07 Q1020 NOSIG EDDM 201250Z AUTO 36001KT //// R26R/P2000N R08R/P2000N // ///////// 14/07 Q1019 NOSIG EDDM 201220Z 10003KT 070V150 9999 FEW027 BKN045 14/08 Q1019 NOSIG EDDM 201150Z 05003KT 010V100 9999 FEW025 BKN044 14/07 Q1019 NOSIG EDDM 201120Z 02003KT 320V070 9999 FEW025 BKN035 14/07 Q1019 NOSIG EDDM 201050Z VRB05KT 9999 FEW024 BKN035 14/08 Q1019 NOSIG EDDM 201020Z 03003KT 310V090 9999 FEW022 BKN033 13/08 Q1019 NOSIG EDDM 200950Z VRB02KT 9999 FEW020 BKN044 14/08 Q1019 NOSIG EDDM 200920Z 10004KT 050V150 9999 FEW017 BKN043 13/08 Q1019 NOSIG EDDM 200850Z VRB02KT 9999 OVC037 12/08 Q1019 NOSIG EDDM 200820Z VRB02KT 9999 OVC037 12/08 Q1019 NOSIG EDDM 200750Z VRB01KT 9999 -RA OVC030 11/08 Q1019 NOSIG EDDM 200720Z 09002KT 9999 OVC030 11/08 Q1019 NOSIG EDDM 200650Z VRB01KT 9999 OVC033 10/08 Q1018 NOSIG EDDM 200620Z 00000KT 9999 OVC033 10/08 Q1018 NOSIG EDDM 200550Z 00000KT 9999 OVC032 10/08 Q1018 NOSIG EDDM 200520Z 00000KT 9999 BKN032 10/09 Q1018 NOSIG EDDM 200450Z 00000KT 9999 BKN033 10/09 Q1018 NOSIG EDDM 200420Z 00000KT 9999 BKN035 OVC045 10/08 Q1017 NOSIG EDDM 200350Z 00000KT 9999 BKN035 OVC045 10/08 Q1017 NOSIG EDDM 200320Z 34003KT 9999 FEW030 BKN037 OVC048 10/08 Q1017 NOSIG EDDM 200250Z 36003KT 320V040 9999 FEW009 SCT034 BKN038 10/08 Q1017 NOSIG EDDM 200220Z 33004KT 9999 FEW009 BKN022 BKN037 10/09 Q1017 NOSIG EDDM 200150Z 32003KT 9999 FEW009 SCT030 BKN037 11/09 Q1017 NOSIG EDDM 200120Z 31004KT 9999 FEW009 SCT030 BKN040 11/09 Q1017 NOSIG EDDM 200050Z 31003KT 9999 FEW009 SCT030 BKN035 11/09 Q1016 NOSIG EDDM 200020Z VRB02KT 9999 FEW033 SCT039 11/09 Q1016 NOSIG EDDM 192350Z VRB02KT 9999 FEW033 BKN038 11/09 Q1016 NOSIG EDDM 192320Z 35003KT 310V020 9999 OVC035 11/09 Q1016 NOSIG EDDM 192250Z 36003KT 300V030 9999 BKN035 11/10 Q1016 NOSIG EDDM 192220Z VRB02KT 9999 BKN037 11/10 Q1016 NOSIG EDDM 192150Z 33001KT 9999 BKN038 11/10 Q1016 NOSIG EDDM 192120Z VRB01KT 9999 FEW038 10/09 Q1016 NOSIG EDDM 192050Z 34003KT 310V010 9999 FEW017 11/09 Q1015 NOSIG EDDM 192020Z 33004KT 9999 FEW016 12/10 Q1015 NOSIG EDDM 191950Z VRB02KT CAVOK 12/10 Q1015 NOSIG EDDM 191920Z 01003KT 330V050 CAVOK 12/10 Q1015 NOSIG EDDM 191850Z 01004KT 340V050 CAVOK 13/10 Q1014 NOSIG EDDM 191820Z 01004KT 340V060 CAVOK 14/10 Q1014 NOSIG EDDM 191750Z 02005KT 350V050 CAVOK 14/10 Q1014 NOSIG EDDM 191720Z 01004KT 340V060 9999 FEW035 15/10 Q1014 NOSIG EDDM 191650Z 01005KT 330V040 9999 FEW035 15/11 Q1013 NOSIG EDDM 191620Z 02004KT 320V060 9999 FEW035 16/11 Q1013 NOSIG EDDM 191550Z 01005KT 330V040 9999 FEW035 16/11 Q1013 NOSIG EDDM 191520Z 01004KT 340V050 9999 FEW034 17/11 Q1013 NOSIG EDDM 191450Z 03007KT 340V060 9999 FEW034 17/10 Q1013 NOSIG

METAR Messwerte

Zurück zur Übersicht

Ort
m ü. NN
Zeit Temperatur Taupunkt Rel.
Luftfeuchte
Luftdruck:
Altimeter
NN
Station
Wind in Beaufort
(Knoten)
Sichtweite
(Meter)
Wolken
(Meter über Grund)
Wettererscheinung
München
447
Di 21.09. 04:2011987 %1024
1025
971
Uml 1 (2)>= 10000Stark bewölkt (910) 
München
447
Di 21.09. 03:5011987 %1024
1025
971
N 2 (3)>= 10000Stark bewölkt (820) 
München
447
Di 21.09. 03:2010993 %1023
1024
970
Uml 1 (2)>= 10000Stark bewölkt (760) 
München
447
Di 21.09. 02:5010993 %1023
1024
970
NW 1 (1)>= 10000Stark bewölkt (760) 
München
447
Di 21.09. 02:2010993 %1023
1024
970
Uml 1 (2)>= 10000Stark bewölkt (1300) 
München
447
Di 21.09. 01:5010993 %1023
1024
970
Uml 1 (1)>= 10000Stark bewölkt (1300) 
München
447
Di 21.09. 01:2010993 %1023
1024
970
Uml 1 (1)>= 10000Stark bewölkt (1400)
Leicht bewölkt (980)
 
München
447
Di 21.09. 00:5010993 %1023
1024
970
NNW 1 (1)>= 10000Stark bewölkt (1200)
Leicht bewölkt (980)
 
München
447
Di 21.09. 00:2010993 %1023
1024
970
SSW 1 (1)>= 10000Stark bewölkt (1500)
Leicht bewölkt (980)
 
München
447
Mo 20.09. 23:5010993 %1023
1024
970
N 1 (1)>= 10000Stark bewölkt (1500)
Leicht bewölkt (980)
 
München
447
Mo 20.09. 23:2010993 %1023
1024
970
NW 1 (1)>= 10000Nicht signifikant 
München
447
Mo 20.09. 22:5010993 %1023
1024
970
Uml 1 (1)>= 10000Nicht signifikant 
München
447
Mo 20.09. 22:2010993 %1022
1023
969
Windstill>= 10000Nicht signifikant 
München
447
Mo 20.09. 21:5011987 %1022
1023
969
NNO 2 (3)
NNW - ONO
>= 10000Nicht signifikant 
München
447
Mo 20.09. 21:2011987 %1022
1023
969
Uml 1 (2)>= 10000Nicht signifikant 
München
447
Mo 20.09. 20:5011882 %1022
1023
969
NO 2 (3)
N - ONO
>= 10000Nicht signifikant 
München
447
Mo 20.09. 20:2010887 %1022
1023
969
ONO 2 (3)>= 10000Nicht signifikant 
München
447
Mo 20.09. 19:5010887 %1021
1022
968
ONO 2 (3)>= 10000Nicht signifikant 
München
447
Mo 20.09. 19:2012876 %1021
1022
968
Uml 1 (2)>= 10000Nicht signifikant 
München
447
Mo 20.09. 18:5013872 %1021
1021
968
NO 2 (3)>= 10000Nicht signifikant 
München
447
Mo 20.09. 18:2014867 %1020
1020
967
NNO 2 (3)>= 10000Leicht bewölkt (980) 
München
447
Mo 20.09. 17:5014867 %1020
1020
967
N 2 (3)
NW - ONO
>= 10000Leicht bewölkt (980) 
München
447
Mo 20.09. 17:2015863 %1020
1020
967
N 2 (4)
NW - NO
>= 10000Leicht bewölkt (980) 
München
447
Mo 20.09. 16:5015759 %1020
1020
967
N 2 (6)
NW - ONO
>= 10000Leicht bewölkt (980) 
München
447
Mo 20.09. 16:2015863 %1020
1020
967
N 2 (4)
NW - ONO
>= 10000Leicht bewölkt (1000) 
München
447
Mo 20.09. 15:5016859 %1020
1020
967
N 2 (4)
NW - ONO
>= 10000Leicht bewölkt (1000) 
München
447
Mo 20.09. 15:2015759 %1020
1020
967
NNO 2 (3)
WNW - O
>= 10000Stark bewölkt (1500)
Leicht bewölkt (940)
 
München
447
Mo 20.09. 14:5014763 %1019
1019
966
N 1 (1)   
München
447
Mo 20.09. 14:2014867 %1019
1019
966
O 2 (3)
ONO - SSO
>= 10000Stark bewölkt (1400)
Leicht bewölkt (820)
 
München
447
Mo 20.09. 13:5014763 %1019
1019
966
NO 2 (3)
N - O
>= 10000Stark bewölkt (1300)
Leicht bewölkt (760)
 
München
447
Mo 20.09. 13:2014763 %1019
1019
966
NNO 2 (3)
NW - ONO
>= 10000Stark bewölkt (1100)
Leicht bewölkt (760)
 
München
447
Mo 20.09. 12:5014867 %1019
1019
966
Uml 2 (5)>= 10000Stark bewölkt (1100)
Leicht bewölkt (730)
 
München
447
Mo 20.09. 12:2013872 %1019
1019
966
NNO 2 (3)
NW - O
>= 10000Stark bewölkt (1000)
Leicht bewölkt (670)
 
München
447
Mo 20.09. 11:5014867 %1019
1019
966
Uml 1 (2)>= 10000Stark bewölkt (1300)
Leicht bewölkt (610)
 
München
447
Mo 20.09. 11:2013872 %1019
1019
966
O 2 (4)
NO - SSO
>= 10000Stark bewölkt (1300)
Leicht bewölkt (520)
 
München
447
Mo 20.09. 10:5012876 %1019
1020
966
Uml 1 (2)>= 10000Bedeckt (1100) 
München
447
Mo 20.09. 10:2012876 %1019
1020
966
Uml 1 (2)>= 10000Bedeckt (1100) 
München
447
Mo 20.09. 09:5011882 %1019
1020
966
Uml 1 (1)>= 10000Bedeckt (910)Regen (schwach)
München
447
Mo 20.09. 09:2011882 %1019
1020
966
O 1 (2)>= 10000Bedeckt (910) 
München
447
Mo 20.09. 08:5010887 %1018
1019
965
Uml 1 (1)>= 10000Bedeckt (1000) 
München
447
Mo 20.09. 08:2010887 %1018
1019
965
Windstill>= 10000Bedeckt (1000) 
München
447
Mo 20.09. 07:5010887 %1018
1019
965
Windstill>= 10000Bedeckt (980) 
München
447
Mo 20.09. 07:2010993 %1018
1019
965
Windstill>= 10000Stark bewölkt (980) 
München
447
Mo 20.09. 06:5010993 %1018
1019
965
Windstill>= 10000Stark bewölkt (1000) 
München
447
Mo 20.09. 06:2010887 %1017
1018
964
Windstill>= 10000Bedeckt (1400)
Stark bewölkt (1100)
 
München
447
Mo 20.09. 05:5010887 %1017
1018
964
Windstill>= 10000Bedeckt (1400)
Stark bewölkt (1100)
 
München
447
Mo 20.09. 05:2010887 %1017
1018
964
NNW 2 (3)>= 10000Bedeckt (1500)
Stark bewölkt (1100)
Leicht bewölkt (910)
 
München
447
Mo 20.09. 04:5010887 %1017
1018
964
N 2 (3)
NW - NO
>= 10000Stark bewölkt (1200)
Wolkig (1000)
Leicht bewölkt (270)
 
München
447
Mo 20.09. 04:2010993 %1017
1018
964
NNW 2 (4)>= 10000Stark bewölkt (1100)
Stark bewölkt (670)
Leicht bewölkt (270)
 
München
447
Mo 20.09. 03:5011987 %1017
1018
964
NW 2 (3)>= 10000Stark bewölkt (1100)
Wolkig (910)
Leicht bewölkt (270)
 
München
447
Mo 20.09. 03:2011987 %1017
1018
964
NW 2 (4)>= 10000Stark bewölkt (1200)
Wolkig (910)
Leicht bewölkt (270)
 
München
447
Mo 20.09. 02:5011987 %1016
1017
963
NW 2 (3)>= 10000Stark bewölkt (1100)
Wolkig (910)
Leicht bewölkt (270)
 
München
447
Mo 20.09. 02:2011987 %1016
1017
963
Uml 1 (2)>= 10000Wolkig (1200)
Leicht bewölkt (1000)
 
München
447
Mo 20.09. 01:5011987 %1016
1017
963
Uml 1 (2)>= 10000Stark bewölkt (1200)
Leicht bewölkt (1000)
 
München
447
Mo 20.09. 01:2011987 %1016
1017
963
N 2 (3)
NW - NNO
>= 10000Bedeckt (1100) 
München
447
Mo 20.09. 00:50111094 %1016
1017
963
N 2 (3)
WNW - NNO
>= 10000Stark bewölkt (1100) 
München
447
Mo 20.09. 00:20111094 %1016
1017
963
Uml 1 (2)>= 10000Stark bewölkt (1100) 
München
447
So 19.09. 23:50111094 %1016
1017
963
NNW 1 (1)>= 10000Stark bewölkt (1200) 
München
447
So 19.09. 23:2010993 %1016
1017
963
Uml 1 (1)>= 10000Leicht bewölkt (1200) 
München
447
So 19.09. 22:5011987 %1015
1016
962
NNW 2 (3)
NW - N
>= 10000Leicht bewölkt (520) 
München
447
So 19.09. 22:20121088 %1015
1016
962
NNW 2 (4)>= 10000Leicht bewölkt (490) 
München
447
So 19.09. 21:50121088 %1015
1016
962
Uml 1 (2)>= 10000Nicht signifikant 
München
447
So 19.09. 21:20121088 %1015
1016
962
N 2 (3)
NNW - NO
>= 10000Nicht signifikant 
München
447
So 19.09. 20:50131082 %1014
1014
961
N 2 (4)
NNW - NO
>= 10000Nicht signifikant 
München
447
So 19.09. 20:20141077 %1014
1014
961
N 2 (4)
NNW - ONO
>= 10000Nicht signifikant 
München
447
So 19.09. 19:50141077 %1014
1014
961
NNO 2 (5)
N - NO
>= 10000Nicht signifikant 
München
447
So 19.09. 19:20151072 %1014
1014
961
N 2 (4)
NNW - ONO
>= 10000Leicht bewölkt (1100) 
München
447
So 19.09. 18:50151177 %1013
1013
960
N 2 (5)
NNW - NO
>= 10000Leicht bewölkt (1100) 
München
447
So 19.09. 18:20161172 %1013
1013
960
NNO 2 (4)
NW - ONO
>= 10000Leicht bewölkt (1100) 
München
447
So 19.09. 17:50161172 %1013
1013
960
N 2 (5)
NNW - NO
>= 10000Leicht bewölkt (1100) 
München
447
So 19.09. 17:20171168 %1013
1013
960
N 2 (4)
NNW - NO
>= 10000Leicht bewölkt (1000) 
München
447
So 19.09. 16:50171063 %1013
1013
960
NNO 3 (7)
NNW - ONO
>= 10000Leicht bewölkt (1000) 

Altimeter: Einstellung am Altimeter (Höhenmesser), die Höhe 0 muss auf diesen Luftdruckwert zeigen, damit das Gerät die Stationshöhe richtig anzeigt.

NN: Luftdruck reduziert auf "Normal Null", auf Meereshöhe, dieser von der Temperatur abhängige Wert wird bisweilen unkorrekt einfach als "Luftdruck" bezeichnet. Eigentlich nur eine fiktive Größe, die es erlaubt, Stationen auf unterschiedlichen Höhen miteinander zu vergleichen.

Station: Realer Luftdruck an der Station.